Time;durP1;ratioP1;P1;durP2;ratioP2;P2;SDS_P1;SDS_P2;PMS_P1;PMS_P2;Temp;Humidity;BMP_temperature;BMP_pressure;BME280_temperature;BME280_humidity;BME280_pressure;Samples;Min_cycle;Max_cycle;Signal;HPM_P1;HPM_P2
2024/01/13 00:01:02;;;;;;;27.60;20.67;;;;;;;;;;5053876;28;20021;-61
2024/01/13 00:03:28;;;;;;;26.77;19.10;;;;;;;;;;5052294;28;20036;-60
2024/01/13 00:05:54;;;;;;;28.67;20.20;;;;;;;;;;5040311;28;20013;-60
2024/01/13 00:08:20;;;;;;;30.30;21.00;;;;;;;;;;5054364;28;20094;-60
2024/01/13 00:10:46;;;;;;;28.10;19.53;;;;;;;;;;5050721;28;20025;-61
2024/01/13 00:13:12;;;;;;;26.87;19.67;;;;;;;;;;5052153;28;20112;-60
2024/01/13 00:15:39;;;;;;;26.97;19.63;;;;;;;;;;5051336;28;20422;-61
2024/01/13 00:18:06;;;;;;;30.50;21.00;;;;;;;;;;5047999;28;20049;-60
2024/01/13 00:20:32;;;;;;;31.43;20.40;;;;;;;;;;5052262;28;20116;-61
2024/01/13 00:22:58;;;;;;;27.30;20.17;;;;;;;;;;5053666;28;20045;-60
2024/01/13 00:25:24;;;;;;;32.53;21.33;;;;;;;;;;5049898;28;20435;-60
2024/01/13 00:27:50;;;;;;;31.87;21.33;;;;;;;;;;5043367;28;20029;-60
2024/01/13 00:30:16;;;;;;;29.63;21.43;;;;;;;;;;5043469;28;20013;-61
2024/01/13 00:32:42;;;;;;;31.37;21.57;;;;;;;;;;5049923;28;20029;-61
2024/01/13 00:35:08;;;;;;;30.13;20.53;;;;;;;;;;5044447;28;20025;-61
2024/01/13 00:37:35;;;;;;;33.20;23.17;;;;;;;;;;5051759;28;20029;-60
2024/01/13 00:40:00;;;;;;;32.03;22.27;;;;;;;;;;5053276;28;20029;-61
2024/01/13 00:42:26;;;;;;;31.73;22.73;;;;;;;;;;5044556;28;20033;-60
2024/01/13 00:44:52;;;;;;;29.00;21.13;;;;;;;;;;5052714;28;20363;-61
2024/01/13 00:47:18;;;;;;;30.20;21.73;;;;;;;;;;5040689;28;20052;-60
2024/01/13 00:49:44;;;;;;;30.57;21.70;;;;;;;;;;5053815;28;20028;-60
2024/01/13 00:52:10;;;;;;;29.50;21.90;;;;;;;;;;5053809;28;20482;-61
2024/01/13 00:54:36;;;;;;;28.43;22.40;;;;;;;;;;5044323;28;20033;-60
2024/01/13 00:57:03;;;;;;;30.23;21.40;;;;;;;;;;5053190;28;20072;-60
2024/01/13 00:59:29;;;;;;;28.07;21.97;;;;;;;;;;5053529;28;20479;-61
2024/01/13 01:01:55;;;;;;;32.90;22.57;;;;;;;;;;5053299;28;20029;-60
2024/01/13 01:04:21;;;;;;;31.23;22.60;;;;;;;;;;5051831;28;20029;-60
2024/01/13 01:06:46;;;;;;;28.37;22.10;;;;;;;;;;5045060;28;20063;-60
2024/01/13 01:09:12;;;;;;;32.57;22.30;;;;;;;;;;5056749;28;20476;-61
2024/01/13 01:11:38;;;;;;;29.57;22.17;;;;;;;;;;5052414;28;20029;-61
2024/01/13 01:14:04;;;;;;;29.97;21.77;;;;;;;;;;5048100;28;20137;-60
2024/01/13 01:16:30;;;;;;;34.67;24.30;;;;;;;;;;5041581;28;20128;-60
2024/01/13 01:18:56;;;;;;;32.27;23.27;;;;;;;;;;5048312;28;20371;-61
2024/01/13 01:21:22;;;;;;;31.07;23.70;;;;;;;;;;5048158;28;20032;-60
2024/01/13 01:23:48;;;;;;;36.90;24.40;;;;;;;;;;5050608;28;20071;-60
2024/01/13 01:26:15;;;;;;;34.73;24.30;;;;;;;;;;5049350;28;20025;-60
2024/01/13 01:28:40;;;;;;;33.20;24.13;;;;;;;;;;5045314;28;20498;-60
2024/01/13 01:31:07;;;;;;;35.70;24.33;;;;;;;;;;5038876;28;20024;-60
2024/01/13 01:33:33;;;;;;;33.07;24.20;;;;;;;;;;5041805;28;20029;-60
2024/01/13 01:35:59;;;;;;;35.63;24.13;;;;;;;;;;5058238;28;20063;-61
2024/01/13 01:38:25;;;;;;;35.03;25.13;;;;;;;;;;5050561;28;20033;-60
2024/01/13 01:40:55;;;;;;;34.17;25.80;;;;;;;;;;5045855;28;20028;-61
2024/01/13 01:43:21;;;;;;;33.13;24.33;;;;;;;;;;5044443;28;20038;-60
2024/01/13 01:45:48;;;;;;;35.27;24.73;;;;;;;;;;5047840;28;20098;-60
2024/01/13 01:48:14;;;;;;;33.40;25.33;;;;;;;;;;5048336;28;20871;-60
2024/01/13 01:50:40;;;;;;;32.67;24.63;;;;;;;;;;5048544;28;20494;-61
2024/01/13 01:53:07;;;;;;;35.10;26.17;;;;;;;;;;5047764;28;20028;-60
2024/01/13 01:56:10;;;;;;;32.87;26.53;;;;;;;;;;5042116;28;20341;-60
2024/01/13 01:58:36;;;;;;;36.90;26.23;;;;;;;;;;5037720;28;20032;-60
2024/01/13 02:07:11;;;;;;;36.30;24.93;;;;;;;;;;5046046;28;20545;-60
2024/01/13 02:09:37;;;;;;;37.40;25.30;;;;;;;;;;5038204;28;20029;-60
2024/01/13 02:12:03;;;;;;;36.93;25.80;;;;;;;;;;5046967;28;20071;-60
2024/01/13 02:14:29;;;;;;;34.70;24.30;;;;;;;;;;5046022;28;20439;-60
2024/01/13 02:16:55;;;;;;;30.07;23.23;;;;;;;;;;5045333;28;20067;-60
2024/01/13 02:19:37;;;;;;;35.20;22.43;;;;;;;;;;5050646;28;20370;-60
2024/01/13 02:22:18;;;;;;;34.87;23.57;;;;;;;;;;5051350;28;20063;-60
2024/01/13 02:24:44;;;;;;;34.10;23.70;;;;;;;;;;5047957;28;20058;-60
2024/01/13 02:27:10;;;;;;;33.60;23.87;;;;;;;;;;5047268;28;20047;-60
2024/01/13 02:29:36;;;;;;;31.73;23.67;;;;;;;;;;5050875;28;20470;-60
2024/01/13 02:32:02;;;;;;;29.77;22.80;;;;;;;;;;5048259;28;20025;-60
2024/01/13 02:34:28;;;;;;;31.70;24.33;;;;;;;;;;5045352;28;20100;-60
2024/01/13 02:36:54;;;;;;;32.37;23.13;;;;;;;;;;5042535;28;20029;-60
2024/01/13 02:39:20;;;;;;;37.43;24.20;;;;;;;;;;5045235;28;20037;-61
2024/01/13 02:41:47;;;;;;;33.43;24.50;;;;;;;;;;5049363;28;20120;-60
2024/01/13 02:44:13;;;;;;;32.03;23.83;;;;;;;;;;5048788;28;20055;-60
2024/01/13 02:46:39;;;;;;;36.57;25.13;;;;;;;;;;5037288;28;20021;-60
2024/01/13 02:49:05;;;;;;;31.30;23.50;;;;;;;;;;5044622;28;20028;-60
2024/01/13 02:51:31;;;;;;;34.77;24.77;;;;;;;;;;5040656;28;20091;-60
2024/01/13 02:53:57;;;;;;;32.77;24.57;;;;;;;;;;5051214;28;20130;-60
2024/01/13 02:56:23;;;;;;;34.67;24.40;;;;;;;;;;5050156;28;20025;-60
2024/01/13 02:58:49;;;;;;;37.77;24.77;;;;;;;;;;5045056;28;20150;-61
2024/01/13 03:01:16;;;;;;;33.63;25.10;;;;;;;;;;5046518;28;20024;-60
2024/01/13 03:03:42;;;;;;;35.60;24.67;;;;;;;;;;5050860;28;20152;-60
2024/01/13 03:06:10;;;;;;;33.47;24.90;;;;;;;;;;5044312;28;20145;-61
2024/01/13 03:08:36;;;;;;;34.47;24.43;;;;;;;;;;5032921;28;20435;-60
2024/01/13 03:11:02;;;;;;;36.60;26.60;;;;;;;;;;5043610;28;20111;-60
2024/01/13 03:13:28;;;;;;;38.27;26.90;;;;;;;;;;5050948;28;20062;-61
2024/01/13 03:15:54;;;;;;;38.43;26.63;;;;;;;;;;5042540;28;20157;-60
2024/01/13 03:18:20;;;;;;;40.70;28.53;;;;;;;;;;5048557;28;20053;-60
2024/01/13 03:20:46;;;;;;;41.73;28.87;;;;;;;;;;5043338;28;20340;-60
2024/01/13 03:23:12;;;;;;;39.27;29.57;;;;;;;;;;5045864;28;20068;-60
2024/01/13 03:25:38;;;;;;;38.93;28.53;;;;;;;;;;5038066;28;20032;-60
2024/01/13 03:28:04;;;;;;;37.87;26.93;;;;;;;;;;5049951;28;20029;-61
2024/01/13 03:30:30;;;;;;;39.43;27.93;;;;;;;;;;5050762;28;20029;-60
2024/01/13 03:32:56;;;;;;;37.00;26.10;;;;;;;;;;5051361;28;20021;-60
2024/01/13 03:35:22;;;;;;;39.73;26.43;;;;;;;;;;5050659;28;20032;-61
2024/01/13 03:37:49;;;;;;;33.73;25.60;;;;;;;;;;5051704;28;20096;-60
2024/01/13 03:40:14;;;;;;;32.17;23.87;;;;;;;;;;5041219;28;20071;-61
2024/01/13 03:45:44;;;;;;;34.00;23.40;;;;;;;;;;5037367;28;20071;-60
2024/01/13 03:48:10;;;;;;;31.67;23.67;;;;;;;;;;5049570;28;20054;-61
2024/01/13 03:50:36;;;;;;;32.27;23.50;;;;;;;;;;5050264;28;20437;-60
2024/01/13 03:53:02;;;;;;;35.47;24.23;;;;;;;;;;5044957;28;20044;-61
2024/01/13 03:55:28;;;;;;;34.07;23.97;;;;;;;;;;5048982;28;20136;-61
2024/01/13 03:57:54;;;;;;;32.53;23.17;;;;;;;;;;5052457;28;20115;-61
2024/01/13 04:00:20;;;;;;;33.43;23.37;;;;;;;;;;5046836;28;20056;-61
2024/01/13 04:02:46;;;;;;;32.67;21.97;;;;;;;;;;5053681;28;20531;-61
2024/01/13 04:05:12;;;;;;;32.47;21.17;;;;;;;;;;5054666;28;20032;-61
2024/01/13 04:07:38;;;;;;;32.07;22.03;;;;;;;;;;5051531;28;20432;-61
2024/01/13 04:10:04;;;;;;;33.37;22.53;;;;;;;;;;5044430;28;20032;-61
2024/01/13 04:12:30;;;;;;;28.83;21.93;;;;;;;;;;5037646;28;20062;-61
2024/01/13 04:14:56;;;;;;;34.30;23.87;;;;;;;;;;5048229;28;20116;-61
2024/01/13 04:17:23;;;;;;;31.57;22.27;;;;;;;;;;5047365;28;20033;-61
2024/01/13 04:19:49;;;;;;;32.53;23.13;;;;;;;;;;5048476;28;20036;-61
2024/01/13 04:22:15;;;;;;;36.47;23.90;;;;;;;;;;5051238;28;20028;-61
2024/01/13 04:24:41;;;;;;;35.17;24.77;;;;;;;;;;5052176;28;20025;-61
2024/01/13 04:27:06;;;;;;;35.07;25.20;;;;;;;;;;5046553;28;20530;-61
2024/01/13 04:29:33;;;;;;;30.37;23.37;;;;;;;;;;5054164;28;20021;-61
2024/01/13 04:35:02;;;;;;;35.50;23.97;;;;;;;;;;5042378;28;20040;-61
2024/01/13 04:37:28;;;;;;;32.93;24.23;;;;;;;;;;5042723;28;20025;-61
2024/01/13 04:39:54;;;;;;;38.43;26.37;;;;;;;;;;5036028;28;20048;-61
2024/01/13 04:42:20;;;;;;;32.17;23.57;;;;;;;;;;5050004;28;20029;-61
2024/01/13 04:44:46;;;;;;;34.90;24.03;;;;;;;;;;5052658;28;20138;-61
2024/01/13 04:47:12;;;;;;;31.97;23.43;;;;;;;;;;5040423;28;20075;-61
2024/01/13 04:49:38;;;;;;;33.60;23.70;;;;;;;;;;5053354;28;20558;-61
2024/01/13 04:52:05;;;;;;;33.50;24.23;;;;;;;;;;5053914;28;20127;-61
2024/01/13 04:54:31;;;;;;;31.60;23.07;;;;;;;;;;5053141;28;20028;-60
2024/01/13 04:56:57;;;;;;;29.60;22.90;;;;;;;;;;5048328;28;20622;-60
2024/01/13 04:59:23;;;;;;;34.53;23.90;;;;;;;;;;5051357;28;20060;-61
2024/01/13 05:01:49;;;;;;;33.33;25.00;;;;;;;;;;5043466;28;20029;-61
2024/01/13 05:04:15;;;;;;;34.17;24.33;;;;;;;;;;5049177;28;20113;-61
2024/01/13 05:06:41;;;;;;;38.80;25.97;;;;;;;;;;5052093;28;20131;-61
2024/01/13 05:09:07;;;;;;;35.53;24.10;;;;;;;;;;5052131;28;20100;-61
2024/01/13 05:11:33;;;;;;;33.10;23.93;;;;;;;;;;5048435;28;20055;-61
2024/01/13 05:13:59;;;;;;;33.43;24.30;;;;;;;;;;5053049;28;20106;-60
2024/01/13 05:16:25;;;;;;;30.47;23.33;;;;;;;;;;5052500;28;20131;-60
2024/01/13 05:18:51;;;;;;;33.40;22.47;;;;;;;;;;5049541;28;20116;-61
2024/01/13 05:21:17;;;;;;;34.73;23.20;;;;;;;;;;5046454;28;20032;-61
2024/01/13 05:23:43;;;;;;;31.80;22.83;;;;;;;;;;5052145;28;20176;-61
2024/01/13 05:26:09;;;;;;;34.63;23.83;;;;;;;;;;5052403;28;20036;-61
2024/01/13 05:28:35;;;;;;;31.57;22.30;;;;;;;;;;5051610;28;20095;-60
2024/01/13 05:31:01;;;;;;;31.60;21.70;;;;;;;;;;5048235;28;20506;-60
2024/01/13 05:33:27;;;;;;;29.13;21.77;;;;;;;;;;5044360;28;20021;-60
2024/01/13 05:35:53;;;;;;;29.00;21.67;;;;;;;;;;5049515;28;20029;-61
2024/01/13 05:38:19;;;;;;;35.73;23.60;;;;;;;;;;5044753;28;20084;-60
2024/01/13 05:40:45;;;;;;;38.73;28.47;;;;;;;;;;5052225;28;20070;-61
2024/01/13 05:43:11;;;;;;;42.70;29.33;;;;;;;;;;5046484;28;20029;-61
2024/01/13 05:45:38;;;;;;;45.20;31.00;;;;;;;;;;5047655;28;20420;-61
2024/01/13 05:48:04;;;;;;;43.50;29.93;;;;;;;;;;5044428;28;20052;-61
2024/01/13 05:50:30;;;;;;;43.47;30.53;;;;;;;;;;5045049;28;20482;-61
2024/01/13 05:52:56;;;;;;;43.90;31.53;;;;;;;;;;5039940;28;20139;-60
2024/01/13 05:55:22;;;;;;;38.63;30.13;;;;;;;;;;5047577;28;20033;-61
2024/01/13 05:57:48;;;;;;;39.20;30.03;;;;;;;;;;5049902;28;20418;-60
2024/01/13 06:00:15;;;;;;;41.87;30.80;;;;;;;;;;5050681;28;20038;-61
2024/01/13 06:02:41;;;;;;;41.97;30.10;;;;;;;;;;5050887;28;20031;-60
2024/01/13 06:05:07;;;;;;;40.73;29.63;;;;;;;;;;5051148;28;20036;-60
2024/01/13 06:07:33;;;;;;;43.57;30.93;;;;;;;;;;5052167;28;20100;-60
2024/01/13 06:09:59;;;;;;;43.00;30.07;;;;;;;;;;5049573;28;20459;-61
2024/01/13 06:12:27;;;;;;;42.20;31.37;;;;;;;;;;5045492;28;20048;-61
2024/01/13 06:14:53;;;;;;;41.20;29.47;;;;;;;;;;5048253;28;20032;-61
2024/01/13 06:17:19;;;;;;;40.70;29.83;;;;;;;;;;5051186;28;20044;-61
2024/01/13 06:19:46;;;;;;;38.17;29.57;;;;;;;;;;5051917;28;20449;-61
2024/01/13 06:22:15;;;;;;;39.13;30.23;;;;;;;;;;5044625;28;20013;-61
2024/01/13 06:24:41;;;;;;;39.13;30.43;;;;;;;;;;5048935;28;20033;-61
2024/01/13 06:27:07;;;;;;;37.43;28.67;;;;;;;;;;5051272;28;20075;-61
2024/01/13 06:29:33;;;;;;;34.93;28.47;;;;;;;;;;5044652;28;20018;-61
2024/01/13 06:31:59;;;;;;;36.67;29.80;;;;;;;;;;5045887;28;20424;-61
2024/01/13 06:34:25;;;;;;;39.63;29.73;;;;;;;;;;5040827;28;20021;-61
2024/01/13 06:36:51;;;;;;;38.20;29.63;;;;;;;;;;5046254;28;20021;-61
2024/01/13 06:39:17;;;;;;;36.47;29.40;;;;;;;;;;5050091;28;20487;-61
2024/01/13 06:41:43;;;;;;;43.27;31.00;;;;;;;;;;5048800;28;20017;-61
2024/01/13 06:44:09;;;;;;;39.43;29.57;;;;;;;;;;5046408;28;20034;-61
2024/01/13 06:46:35;;;;;;;36.53;29.43;;;;;;;;;;5046003;28;20040;-61
2024/01/13 06:49:01;;;;;;;39.30;30.33;;;;;;;;;;5046330;28;20021;-60
2024/01/13 06:51:27;;;;;;;39.03;29.63;;;;;;;;;;5044878;28;20370;-61
2024/01/13 06:53:53;;;;;;;36.03;29.17;;;;;;;;;;5040139;28;20028;-61
2024/01/13 06:56:19;;;;;;;36.63;29.63;;;;;;;;;;5050358;28;20060;-61
2024/01/13 06:58:45;;;;;;;35.30;29.63;;;;;;;;;;5048087;28;20039;-60
2024/01/13 07:01:15;;;;;;;34.93;30.07;;;;;;;;;;5041230;28;20029;-60
2024/01/13 07:03:42;;;;;;;38.97;30.17;;;;;;;;;;5049847;28;20044;-60
2024/01/13 07:06:08;;;;;;;38.53;31.67;;;;;;;;;;5041432;28;20029;-60
2024/01/13 07:08:34;;;;;;;39.97;30.60;;;;;;;;;;5044034;28;20025;-60
2024/01/13 07:11:00;;;;;;;36.67;29.73;;;;;;;;;;5047583;28;20203;-61
2024/01/13 07:13:26;;;;;;;36.17;30.67;;;;;;;;;;5042251;28;20033;-61
2024/01/13 07:15:53;;;;;;;35.73;28.97;;;;;;;;;;5053441;28;20028;-61
2024/01/13 07:18:20;;;;;;;35.97;30.30;;;;;;;;;;5046562;28;20048;-61
2024/01/13 07:20:46;;;;;;;41.43;31.10;;;;;;;;;;5043839;28;20017;-60
2024/01/13 07:23:12;;;;;;;35.67;30.60;;;;;;;;;;5041919;28;20426;-61
2024/01/13 07:25:38;;;;;;;40.17;31.37;;;;;;;;;;5047202;28;20024;-61
2024/01/13 07:28:04;;;;;;;36.43;28.63;;;;;;;;;;5051301;28;20029;-60
2024/01/13 07:30:30;;;;;;;42.70;33.47;;;;;;;;;;5055379;28;20044;-60
2024/01/13 07:32:57;;;;;;;36.63;30.93;;;;;;;;;;5055129;28;20057;-60
2024/01/13 07:35:23;;;;;;;41.30;30.83;;;;;;;;;;5054963;28;20121;-60
2024/01/13 07:37:49;;;;;;;37.40;30.77;;;;;;;;;;5040487;28;20025;-60
2024/01/13 07:40:17;;;;;;;36.60;30.20;;;;;;;;;;5053833;28;20037;-61
2024/01/13 07:42:43;;;;;;;36.33;29.97;;;;;;;;;;5055165;28;20031;-61
2024/01/13 07:45:09;;;;;;;41.57;31.37;;;;;;;;;;5048411;28;20083;-61
2024/01/13 07:47:35;;;;;;;36.53;29.87;;;;;;;;;;5055144;28;20378;-60
2024/01/13 07:50:03;;;;;;;39.63;29.80;;;;;;;;;;5038245;28;20033;-60
2024/01/13 07:52:29;;;;;;;38.00;30.23;;;;;;;;;;5050553;28;20475;-61
2024/01/13 07:54:55;;;;;;;39.87;30.23;;;;;;;;;;5047302;28;20026;-61
2024/01/13 07:57:22;;;;;;;38.50;30.80;;;;;;;;;;5046796;28;20021;-61
2024/01/13 07:59:48;;;;;;;35.90;30.43;;;;;;;;;;5054546;28;20037;-60
2024/01/13 08:02:15;;;;;;;39.83;29.97;;;;;;;;;;5054563;28;20155;-60
2024/01/13 08:04:43;;;;;;;36.57;29.80;;;;;;;;;;5054512;28;20108;-60
2024/01/13 08:07:09;;;;;;;34.77;28.10;;;;;;;;;;5054678;28;20025;-60
2024/01/13 08:09:35;;;;;;;37.83;30.37;;;;;;;;;;5054267;28;20031;-60
2024/01/13 08:12:01;;;;;;;40.33;30.10;;;;;;;;;;5053020;28;20115;-60
2024/01/13 08:14:27;;;;;;;39.10;28.90;;;;;;;;;;5048583;28;20576;-60
2024/01/13 08:16:53;;;;;;;37.57;29.47;;;;;;;;;;5054652;28;20049;-61
2024/01/13 08:19:20;;;;;;;36.77;29.23;;;;;;;;;;5044142;28;20040;-60
2024/01/13 08:21:46;;;;;;;36.90;29.47;;;;;;;;;;5047530;28;20494;-61
2024/01/13 08:24:12;;;;;;;40.47;29.77;;;;;;;;;;5046417;28;20025;-61
2024/01/13 08:26:38;;;;;;;40.40;29.77;;;;;;;;;;5051313;28;20537;-60
2024/01/13 08:29:04;;;;;;;38.43;28.67;;;;;;;;;;5041890;28;20074;-61
2024/01/13 08:31:30;;;;;;;37.80;27.87;;;;;;;;;;5046926;28;20092;-60
2024/01/13 08:33:56;;;;;;;37.93;28.63;;;;;;;;;;5047888;28;20025;-60
2024/01/13 08:36:22;;;;;;;34.10;27.53;;;;;;;;;;5050527;28;20094;-61
2024/01/13 08:38:48;;;;;;;38.33;28.23;;;;;;;;;;5054031;28;20032;-61
2024/01/13 08:41:14;;;;;;;34.50;27.50;;;;;;;;;;5052978;28;20378;-61
2024/01/13 08:43:40;;;;;;;34.67;27.80;;;;;;;;;;5053944;28;20025;-61
2024/01/13 08:46:07;;;;;;;37.83;27.97;;;;;;;;;;5052219;28;20029;-61
2024/01/13 08:48:33;;;;;;;35.43;27.57;;;;;;;;;;5053004;28;20029;-61
2024/01/13 08:50:59;;;;;;;33.03;26.63;;;;;;;;;;5053620;28;20040;-60
2024/01/13 08:53:27;;;;;;;36.73;27.57;;;;;;;;;;5051751;28;20025;-60
2024/01/13 08:58:56;;;;;;;31.30;26.80;;;;;;;;;;5044039;28;20047;-61
2024/01/13 09:01:22;;;;;;;36.97;27.97;;;;;;;;;;5052369;28;20025;-60
2024/01/13 09:03:48;;;;;;;33.40;28.17;;;;;;;;;;5053646;28;20021;-60
2024/01/13 09:06:14;;;;;;;37.83;27.93;;;;;;;;;;5053340;28;20028;-61
2024/01/13 09:08:40;;;;;;;31.97;25.73;;;;;;;;;;5052002;28;20104;-61
2024/01/13 09:11:06;;;;;;;36.90;27.73;;;;;;;;;;5051808;28;20029;-60
2024/01/13 09:13:32;;;;;;;37.43;26.97;;;;;;;;;;5052471;28;20029;-60
2024/01/13 09:16:14;;;;;;;34.80;26.63;;;;;;;;;;5053066;28;20505;-61
2024/01/13 09:18:40;;;;;;;31.40;25.87;;;;;;;;;;5052566;28;20049;-61
2024/01/13 09:21:08;;;;;;;37.27;27.13;;;;;;;;;;5044740;28;20029;-60
2024/01/13 09:23:34;;;;;;;34.77;25.70;;;;;;;;;;5053404;28;20034;-60
2024/01/13 09:26:03;;;;;;;34.43;26.43;;;;;;;;;;5052994;28;20024;-60
2024/01/13 09:28:29;;;;;;;34.43;26.40;;;;;;;;;;5052873;28;20117;-60
2024/01/13 09:30:55;;;;;;;37.90;27.13;;;;;;;;;;5051137;28;20132;-61
2024/01/13 09:33:21;;;;;;;38.47;26.97;;;;;;;;;;5053400;28;20032;-60
2024/01/13 09:35:47;;;;;;;35.40;28.13;;;;;;;;;;5052997;28;20040;-61
2024/01/13 09:38:13;;;;;;;38.27;26.77;;;;;;;;;;5052729;28;20029;-61
2024/01/13 09:40:41;;;;;;;35.37;26.90;;;;;;;;;;5051429;28;20542;-61
2024/01/13 09:43:31;;;;;;;31.83;25.43;;;;;;;;;;5051430;28;20485;-61
2024/01/13 09:45:57;;;;;;;34.03;26.30;;;;;;;;;;5046357;28;20107;-60
2024/01/13 09:48:24;;;;;;;35.57;26.00;;;;;;;;;;5052969;28;20112;-61
2024/01/13 09:50:54;;;;;;;36.47;26.17;;;;;;;;;;5052563;28;20553;-60
2024/01/13 09:53:28;;;;;;;37.33;27.70;;;;;;;;;;5052690;28;20029;-60
2024/01/13 09:55:56;;;;;;;41.67;30.30;;;;;;;;;;5044260;28;20097;-60
2024/01/13 09:58:22;;;;;;;39.80;30.67;;;;;;;;;;5051000;28;20025;-60
2024/01/13 10:00:49;;;;;;;44.37;32.67;;;;;;;;;;5052421;28;20090;-61
2024/01/13 10:03:15;;;;;;;51.20;33.90;;;;;;;;;;5047835;28;20055;-60
2024/01/13 10:05:41;;;;;;;46.33;34.53;;;;;;;;;;5052453;28;20211;-61
2024/01/13 10:08:07;;;;;;;47.27;34.73;;;;;;;;;;5041179;28;20512;-61
2024/01/13 10:10:33;;;;;;;52.17;37.17;;;;;;;;;;5048074;28;20029;-60
2024/01/13 10:12:59;;;;;;;47.20;34.40;;;;;;;;;;5051941;28;20082;-61
2024/01/13 10:15:25;;;;;;;50.17;36.03;;;;;;;;;;5052010;28;20032;-61
2024/01/13 10:17:53;;;;;;;46.77;35.33;;;;;;;;;;5051818;28;20056;-60
2024/01/13 10:20:23;;;;;;;49.93;35.57;;;;;;;;;;5050635;28;20466;-60
2024/01/13 10:22:49;;;;;;;48.57;35.37;;;;;;;;;;5046829;28;20061;-60
2024/01/13 10:25:48;;;;;;;45.77;32.93;;;;;;;;;;5038120;28;20025;-60
2024/01/13 10:28:15;;;;;;;57.50;34.43;;;;;;;;;;5052313;28;20036;-61
2024/01/13 10:30:41;;;;;;;47.77;33.23;;;;;;;;;;5051952;28;20020;-61
2024/01/13 10:33:10;;;;;;;48.03;33.80;;;;;;;;;;5050439;28;20105;-61
2024/01/13 10:35:36;;;;;;;50.40;35.50;;;;;;;;;;5051835;28;20471;-61
2024/01/13 10:38:03;;;;;;;55.20;36.60;;;;;;;;;;5051967;28;20029;-60
2024/01/13 10:40:29;;;;;;;54.67;37.27;;;;;;;;;;5051490;28;20040;-61
2024/01/13 10:42:55;;;;;;;56.63;37.50;;;;;;;;;;5043451;28;20430;-60
2024/01/13 10:45:23;;;;;;;55.27;37.50;;;;;;;;;;5045581;28;20026;-61
2024/01/13 10:47:52;;;;;;;58.27;37.87;;;;;;;;;;5052053;28;20112;-61
2024/01/13 10:50:27;;;;;;;62.03;40.20;;;;;;;;;;5042578;28;20022;-61
2024/01/13 10:53:13;;;;;;;61.20;39.50;;;;;;;;;;5051513;28;20068;-61
2024/01/13 10:55:40;;;;;;;59.93;38.13;;;;;;;;;;5044626;28;20371;-61
2024/01/13 10:58:06;;;;;;;53.77;35.07;;;;;;;;;;5051353;28;20036;-61
2024/01/13 11:00:32;;;;;;;49.27;34.23;;;;;;;;;;5045900;28;20056;-61
2024/01/13 11:02:59;;;;;;;60.30;39.60;;;;;;;;;;5052608;28;20050;-61
2024/01/13 11:05:27;;;;;;;60.73;40.73;;;;;;;;;;5055592;28;20037;-61
2024/01/13 11:07:53;;;;;;;63.50;42.13;;;;;;;;;;5055699;28;20060;-61
2024/01/13 11:10:23;;;;;;;65.30;43.60;;;;;;;;;;5055301;28;20111;-61
2024/01/13 11:12:51;;;;;;;61.60;42.70;;;;;;;;;;5052010;28;20037;-61
2024/01/13 11:15:39;;;;;;;61.73;43.80;;;;;;;;;;5054271;28;20040;-61
2024/01/13 11:18:05;;;;;;;55.10;38.03;;;;;;;;;;5046352;28;20107;-61
2024/01/13 11:20:50;;;;;;;53.30;34.83;;;;;;;;;;5053002;28;20071;-61
2024/01/13 11:23:16;;;;;;;46.85;32.53;;;;;;;;;;5045976;28;20025;-61
2024/01/13 11:25:42;;;;;;;41.40;29.53;;;;;;;;;;5041312;28;20053;-61
2024/01/13 11:28:13;;;;;;;40.27;29.73;;;;;;;;;;5055154;28;20052;-61
2024/01/13 11:30:39;;;;;;;40.83;30.53;;;;;;;;;;5055322;28;20032;-61
2024/01/13 11:33:12;;;;;;;39.27;28.77;;;;;;;;;;5052394;28;20024;-61
2024/01/13 11:35:40;;;;;;;43.37;29.30;;;;;;;;;;5049403;28;20082;-61
2024/01/13 11:38:07;;;;;;;45.73;31.37;;;;;;;;;;5047310;28;20395;-61
2024/01/13 11:40:33;;;;;;;44.20;30.63;;;;;;;;;;5043123;28;20086;-60
2024/01/13 11:43:03;;;;;;;41.00;29.53;;;;;;;;;;5047340;28;20044;-60
2024/01/13 11:45:35;;;;;;;40.50;29.03;;;;;;;;;;5050442;28;20385;-60
2024/01/13 11:48:20;;;;;;;34.23;25.90;;;;;;;;;;5051487;28;20067;-60
2024/01/13 11:50:52;;;;;;;28.83;20.52;;;;;;;;;;5054479;28;20021;-61
2024/01/13 11:53:35;;;;;;;34.53;26.13;;;;;;;;;;5054714;28;20112;-61
2024/01/13 11:56:01;;;;;;;37.17;26.70;;;;;;;;;;5054188;28;20021;-61
2024/01/13 11:58:27;;;;;;;34.00;25.73;;;;;;;;;;5052496;28;20092;-61
2024/01/13 12:00:53;;;;;;;34.83;25.43;;;;;;;;;;5053824;28;20036;-61
2024/01/13 12:03:19;;;;;;;31.73;24.57;;;;;;;;;;5053848;28;20029;-61
2024/01/13 12:05:45;;;;;;;34.93;27.03;;;;;;;;;;5054277;28;20048;-61
2024/01/13 12:08:12;;;;;;;30.60;23.77;;;;;;;;;;5054316;28;20027;-61
2024/01/13 12:10:45;;;;;;;37.90;25.73;;;;;;;;;;5054317;28;20033;-61
2024/01/13 12:13:15;;;;;;;32.03;24.33;;;;;;;;;;5052960;28;20116;-61
2024/01/13 12:15:42;;;;;;;36.17;25.80;;;;;;;;;;5052786;28;20063;-61
2024/01/13 12:18:08;;;;;;;31.77;23.97;;;;;;;;;;5053290;28;20131;-61
2024/01/13 12:20:34;;;;;;;36.27;25.03;;;;;;;;;;5053962;28;20475;-61
2024/01/13 12:23:01;;;;;;;33.27;24.70;;;;;;;;;;5054108;28;20112;-61
2024/01/13 12:25:38;;;;;;;31.97;24.63;;;;;;;;;;5053964;28;20140;-61
2024/01/13 12:28:04;;;;;;;33.53;23.80;;;;;;;;;;5041438;28;20055;-61
2024/01/13 12:30:30;;;;;;;31.27;23.17;;;;;;;;;;5046363;28;20025;-62
2024/01/13 12:32:56;;;;;;;32.43;23.40;;;;;;;;;;5054069;28;20104;-61
2024/01/13 12:35:26;;;;;;;29.00;22.23;;;;;;;;;;5053915;28;20078;-62
2024/01/13 12:37:52;;;;;;;28.80;21.53;;;;;;;;;;5053499;28;20100;-62
2024/01/13 12:40:18;;;;;;;26.40;19.47;;;;;;;;;;5052227;28;20033;-62
2024/01/13 12:42:46;;;;;;;28.23;20.90;;;;;;;;;;5053762;28;20020;-62
2024/01/13 12:45:12;;;;;;;27.13;20.10;;;;;;;;;;5053891;28;20100;-62
2024/01/13 12:47:38;;;;;;;27.27;19.30;;;;;;;;;;5053715;28;20024;-62
2024/01/13 12:50:10;;;;;;;27.10;20.23;;;;;;;;;;5051878;28;20112;-62
2024/01/13 12:52:41;;;;;;;25.20;19.00;;;;;;;;;;5052036;28;20021;-62
2024/01/13 12:55:07;;;;;;;26.00;17.70;;;;;;;;;;5053492;28;20017;-62
2024/01/13 12:57:34;;;;;;;23.07;17.50;;;;;;;;;;5053584;28;20108;-62
2024/01/13 13:00:01;;;;;;;22.70;16.83;;;;;;;;;;5053063;28;20040;-62
2024/01/13 13:02:27;;;;;;;19.27;15.43;;;;;;;;;;5053236;28;20500;-62
2024/01/13 13:04:54;;;;;;;22.73;17.30;;;;;;;;;;5053073;28;20033;-62
2024/01/13 13:07:24;;;;;;;22.17;16.83;;;;;;;;;;5053321;28;20486;-61
2024/01/13 13:09:50;;;;;;;24.37;18.47;;;;;;;;;;5053123;28;20031;-62
2024/01/13 13:12:16;;;;;;;22.60;16.33;;;;;;;;;;5053197;28;20028;-62
2024/01/13 13:14:43;;;;;;;23.20;16.10;;;;;;;;;;5048700;28;20041;-62
2024/01/13 13:17:09;;;;;;;23.30;16.13;;;;;;;;;;5047895;28;20036;-62
2024/01/13 13:19:35;;;;;;;20.27;15.40;;;;;;;;;;5031771;28;20547;-63
2024/01/13 13:22:03;;;;;;;23.27;15.63;;;;;;;;;;5050267;28;20122;-62
2024/01/13 13:24:31;;;;;;;19.93;15.47;;;;;;;;;;5052529;28;20035;-62
2024/01/13 13:26:57;;;;;;;18.83;14.83;;;;;;;;;;5052724;28;20067;-62
2024/01/13 13:29:24;;;;;;;21.27;15.90;;;;;;;;;;5052852;28;20489;-62
2024/01/13 13:31:51;;;;;;;19.03;14.43;;;;;;;;;;5052878;28;20048;-62
2024/01/13 13:34:17;;;;;;;21.10;15.83;;;;;;;;;;5052783;28;20041;-62
2024/01/13 13:36:43;;;;;;;21.20;16.47;;;;;;;;;;5052826;28;20029;-62
2024/01/13 13:39:09;;;;;;;21.33;16.20;;;;;;;;;;5052825;28;20039;-62
2024/01/13 13:41:35;;;;;;;26.33;19.33;;;;;;;;;;5052474;28;20036;-62
2024/01/13 13:44:01;;;;;;;24.10;17.27;;;;;;;;;;5051881;28;20041;-62
2024/01/13 13:46:27;;;;;;;24.40;18.00;;;;;;;;;;5052469;28;20115;-62
2024/01/13 13:48:53;;;;;;;26.73;19.40;;;;;;;;;;5052459;28;20033;-62
2024/01/13 13:51:19;;;;;;;22.63;18.13;;;;;;;;;;5052160;28;20036;-62
2024/01/13 13:53:45;;;;;;;27.20;19.60;;;;;;;;;;5052755;28;20021;-62
2024/01/13 13:56:11;;;;;;;25.77;21.10;;;;;;;;;;5052142;28;20029;-62
2024/01/13 13:58:37;;;;;;;29.73;21.10;;;;;;;;;;5052179;28;20021;-62
2024/01/13 14:01:03;;;;;;;47.30;34.07;;;;;;;;;;5050700;28;20078;-62
2024/01/13 14:03:30;;;;;;;51.03;35.27;;;;;;;;;;5051872;28;20397;-62
2024/01/13 14:05:56;;;;;;;55.30;38.10;;;;;;;;;;5052220;28;20093;-62
2024/01/13 14:08:22;;;;;;;59.17;40.40;;;;;;;;;;5051232;28;20025;-62
2024/01/13 14:10:48;;;;;;;65.47;43.20;;;;;;;;;;5050830;28;20021;-62
2024/01/13 14:13:14;;;;;;;62.97;42.90;;;;;;;;;;5052260;28;20087;-62
2024/01/13 14:15:40;;;;;;;65.17;41.77;;;;;;;;;;5051938;28;20108;-62
2024/01/13 14:18:06;;;;;;;70.40;44.93;;;;;;;;;;5051918;28;20044;-62
2024/01/13 14:20:32;;;;;;;64.87;43.30;;;;;;;;;;5051597;28;20481;-62
2024/01/13 14:22:58;;;;;;;65.17;44.13;;;;;;;;;;5050348;28;20025;-62
2024/01/13 14:25:25;;;;;;;69.40;43.77;;;;;;;;;;5051893;28;20025;-62
2024/01/13 14:27:51;;;;;;;56.53;39.70;;;;;;;;;;5050315;28;20375;-62
2024/01/13 14:30:17;;;;;;;64.83;42.87;;;;;;;;;;5050527;28;20028;-62